sensor_id;sensor_type;location;lat;lon;timestamp;P1;durP1;ratioP1;P2;durP2;ratioP2
48215;SDS011;34005;48.844;10.098;2022-10-16T15:14:32;2.80;;;0.52;;
48215;SDS011;34005;48.844;10.098;2022-10-16T15:17:00;3.30;;;0.95;;
48215;SDS011;34005;48.844;10.098;2022-10-16T15:19:27;2.95;;;0.77;;
48215;SDS011;34005;48.844;10.098;2022-10-16T15:21:55;2.00;;;0.73;;
48215;SDS011;34005;48.844;10.098;2022-10-16T15:24:23;3.42;;;0.88;;
48215;SDS011;34005;48.844;10.098;2022-10-16T15:26:50;4.90;;;2.10;;
48215;SDS011;34005;48.844;10.098;2022-10-16T15:29:18;5.00;;;2.50;;
48215;SDS011;34005;48.844;10.098;2022-10-16T15:31:48;10.20;;;7.28;;
48215;SDS011;34005;48.844;10.098;2022-10-16T15:34:16;7.82;;;4.13;;
48215;SDS011;34005;48.844;10.098;2022-10-16T15:36:45;5.75;;;4.13;;
48215;SDS011;34005;48.844;10.098;2022-10-16T15:39:14;4.68;;;3.42;;
48215;SDS011;34005;48.844;10.098;2022-10-16T15:41:44;4.00;;;2.40;;
48215;SDS011;34005;48.844;10.098;2022-10-16T15:44:16;3.65;;;2.80;;
48215;SDS011;34005;48.844;10.098;2022-10-16T15:46:44;6.20;;;4.80;;
48215;SDS011;34005;48.844;10.098;2022-10-16T15:49:13;7.63;;;6.93;;
48215;SDS011;34005;48.844;10.098;2022-10-16T15:51:41;6.97;;;3.90;;
48215;SDS011;34005;48.844;10.098;2022-10-16T15:54:09;8.23;;;2.30;;
48215;SDS011;34005;48.844;10.098;2022-10-16T15:56:36;3.45;;;2.50;;
48215;SDS011;34005;48.844;10.098;2022-10-16T16:07:11;11.55;;;1.80;;
48215;SDS011;34005;48.844;10.098;2022-10-16T16:09:39;3.30;;;1.10;;
48215;SDS011;34005;48.844;10.098;2022-10-16T16:12:06;3.72;;;1.42;;
48215;SDS011;34005;48.844;10.098;2022-10-16T17:16:41;2.08;;;1.88;;
48215;SDS011;34005;48.844;10.098;2022-10-16T17:19:14;3.03;;;1.67;;
48215;SDS011;34005;48.844;10.098;2022-10-16T17:21:43;2.08;;;1.40;;
48215;SDS011;34005;48.844;10.098;2022-10-16T17:24:11;4.40;;;1.42;;
48215;SDS011;34005;48.844;10.098;2022-10-16T17:26:38;2.40;;;1.80;;
48215;SDS011;34005;48.844;10.098;2022-10-16T17:29:10;4.15;;;1.58;;
48215;SDS011;34005;48.844;10.098;2022-10-16T17:31:38;4.75;;;1.83;;
48215;SDS011;34005;48.844;10.098;2022-10-16T17:34:08;4.32;;;1.73;;
48215;SDS011;34005;48.844;10.098;2022-10-16T17:36:37;5.88;;;1.90;;
48215;SDS011;34005;48.844;10.098;2022-10-16T17:39:10;2.30;;;1.88;;
48215;SDS011;34005;48.844;10.098;2022-10-16T17:41:38;4.43;;;1.80;;
48215;SDS011;34005;48.844;10.098;2022-10-16T17:44:06;5.70;;;1.85;;
48215;SDS011;34005;48.844;10.098;2022-10-16T17:46:34;2.83;;;1.60;;
48215;SDS011;34005;48.844;10.098;2022-10-16T17:49:08;19.67;;;2.20;;
48215;SDS011;34005;48.844;10.098;2022-10-16T17:51:36;1.77;;;1.55;;
48215;SDS011;34005;48.844;10.098;2022-10-16T17:54:03;3.30;;;1.90;;
48215;SDS011;34005;48.844;10.098;2022-10-16T17:56:32;4.20;;;2.20;;
48215;SDS011;34005;48.844;10.098;2022-10-16T17:59:00;5.90;;;1.60;;
48215;SDS011;34005;48.844;10.098;2022-10-16T18:01:29;3.35;;;1.60;;
48215;SDS011;34005;48.844;10.098;2022-10-16T18:03:59;5.10;;;2.10;;
48215;SDS011;34005;48.844;10.098;2022-10-16T18:06:29;2.75;;;2.17;;
48215;SDS011;34005;48.844;10.098;2022-10-16T18:08:58;6.97;;;2.25;;
48215;SDS011;34005;48.844;10.098;2022-10-16T18:11:26;13.30;;;2.13;;
48215;SDS011;34005;48.844;10.098;2022-10-16T18:13:55;5.85;;;1.40;;
48215;SDS011;34005;48.844;10.098;2022-10-16T18:16:24;7.20;;;1.60;;
48215;SDS011;34005;48.844;10.098;2022-10-16T18:18:53;4.13;;;1.60;;
48215;SDS011;34005;48.844;10.098;2022-10-16T18:21:22;4.03;;;1.65;;
48215;SDS011;34005;48.844;10.098;2022-10-16T18:23:54;2.33;;;1.33;;
48215;SDS011;34005;48.844;10.098;2022-10-16T18:26:24;2.33;;;1.45;;
48215;SDS011;34005;48.844;10.098;2022-10-16T18:28:52;2.38;;;1.50;;
48215;SDS011;34005;48.844;10.098;2022-10-16T18:31:21;4.55;;;1.63;;
48215;SDS011;34005;48.844;10.098;2022-10-16T18:33:50;1.88;;;1.60;;
48215;SDS011;34005;48.844;10.098;2022-10-16T18:36:18;2.33;;;1.52;;
48215;SDS011;34005;48.844;10.098;2022-10-16T18:38:48;1.80;;;1.10;;
48215;SDS011;34005;48.844;10.098;2022-10-16T18:41:20;1.20;;;1.05;;
48215;SDS011;34005;48.844;10.098;2022-10-16T18:43:48;6.07;;;1.20;;
48215;SDS011;34005;48.844;10.098;2022-10-16T18:46:16;4.45;;;1.20;;
48215;SDS011;34005;48.844;10.098;2022-10-16T18:48:45;2.55;;;1.25;;
48215;SDS011;34005;48.844;10.098;2022-10-16T18:51:14;1.20;;;1.10;;
48215;SDS011;34005;48.844;10.098;2022-10-16T18:53:44;5.28;;;1.48;;
48215;SDS011;34005;48.844;10.098;2022-10-16T18:56:13;2.80;;;0.90;;
48215;SDS011;34005;48.844;10.098;2022-10-16T18:58:44;1.65;;;1.00;;
48215;SDS011;34005;48.844;10.098;2022-10-16T19:01:14;1.63;;;1.00;;
48215;SDS011;34005;48.844;10.098;2022-10-16T19:03:45;4.57;;;2.20;;
48215;SDS011;34005;48.844;10.098;2022-10-16T19:06:14;3.75;;;2.03;;
48215;SDS011;34005;48.844;10.098;2022-10-16T19:08:42;12.30;;;1.83;;
48215;SDS011;34005;48.844;10.098;2022-10-16T19:11:11;2.20;;;0.98;;
48215;SDS011;34005;48.844;10.098;2022-10-16T19:13:40;4.97;;;1.63;;
48215;SDS011;34005;48.844;10.098;2022-10-16T19:16:10;1.80;;;0.90;;
48215;SDS011;34005;48.844;10.098;2022-10-16T19:18:47;3.08;;;1.30;;
48215;SDS011;34005;48.844;10.098;2022-10-16T19:21:16;1.73;;;1.08;;
48215;SDS011;34005;48.844;10.098;2022-10-16T19:23:44;3.22;;;1.25;;
48215;SDS011;34005;48.844;10.098;2022-10-16T19:26:13;3.50;;;1.73;;
48215;SDS011;34005;48.844;10.098;2022-10-16T19:28:42;3.58;;;1.40;;
48215;SDS011;34005;48.844;10.098;2022-10-16T19:31:13;3.90;;;1.30;;
48215;SDS011;34005;48.844;10.098;2022-10-16T19:33:45;4.38;;;1.40;;
48215;SDS011;34005;48.844;10.098;2022-10-16T19:36:13;2.13;;;1.00;;
48215;SDS011;34005;48.844;10.098;2022-10-16T19:38:43;2.88;;;1.05;;
48215;SDS011;34005;48.844;10.098;2022-10-16T19:41:12;3.97;;;1.30;;
48215;SDS011;34005;48.844;10.098;2022-10-16T19:43:41;2.90;;;0.90;;
48215;SDS011;34005;48.844;10.098;2022-10-16T19:46:10;6.63;;;1.60;;
48215;SDS011;34005;48.844;10.098;2022-10-16T19:48:40;4.43;;;1.23;;
48215;SDS011;34005;48.844;10.098;2022-10-16T19:51:09;3.05;;;1.25;;
48215;SDS011;34005;48.844;10.098;2022-10-16T19:53:38;3.55;;;2.08;;
48215;SDS011;34005;48.844;10.098;2022-10-16T19:56:10;2.67;;;0.95;;
48215;SDS011;34005;48.844;10.098;2022-10-16T19:58:38;3.63;;;1.00;;
48215;SDS011;34005;48.844;10.098;2022-10-16T20:01:06;4.72;;;1.05;;
48215;SDS011;34005;48.844;10.098;2022-10-16T20:03:34;4.00;;;1.15;;
48215;SDS011;34005;48.844;10.098;2022-10-16T20:06:03;2.35;;;1.10;;
48215;SDS011;34005;48.844;10.098;2022-10-16T20:08:32;1.75;;;1.08;;
48215;SDS011;34005;48.844;10.098;2022-10-16T20:11:00;2.58;;;1.08;;
48215;SDS011;34005;48.844;10.098;2022-10-16T20:13:28;2.88;;;1.00;;
48215;SDS011;34005;48.844;10.098;2022-10-16T20:15:56;3.33;;;1.13;;
48215;SDS011;34005;48.844;10.098;2022-10-16T20:18:24;2.17;;;1.20;;
48215;SDS011;34005;48.844;10.098;2022-10-16T20:20:51;1.75;;;1.15;;
48215;SDS011;34005;48.844;10.098;2022-10-16T20:23:20;1.60;;;1.13;;
48215;SDS011;34005;48.844;10.098;2022-10-16T20:25:49;3.15;;;1.10;;
48215;SDS011;34005;48.844;10.098;2022-10-16T20:28:18;2.28;;;1.27;;
48215;SDS011;34005;48.844;10.098;2022-10-16T20:30:47;1.08;;;0.98;;
48215;SDS011;34005;48.844;10.098;2022-10-16T20:33:16;2.42;;;1.00;;
48215;SDS011;34005;48.844;10.098;2022-10-16T20:35:44;2.10;;;1.35;;
48215;SDS011;34005;48.844;10.098;2022-10-16T20:41:52;5.68;;;1.50;;
48215;SDS011;34005;48.844;10.098;2022-10-16T20:44:20;1.92;;;1.10;;
48215;SDS011;34005;48.844;10.098;2022-10-16T20:46:47;1.27;;;0.95;;
48215;SDS011;34005;48.844;10.098;2022-10-16T20:49:15;1.20;;;1.10;;
48215;SDS011;34005;48.844;10.098;2022-10-16T20:52:01;1.05;;;0.90;;
48215;SDS011;34005;48.844;10.098;2022-10-16T20:54:28;3.15;;;1.20;;
48215;SDS011;34005;48.844;10.098;2022-10-16T20:56:57;5.03;;;1.42;;
48215;SDS011;34005;48.844;10.098;2022-10-16T20:59:25;1.25;;;1.10;;
48215;SDS011;34005;48.844;10.098;2022-10-16T21:01:52;2.25;;;1.35;;
48215;SDS011;34005;48.844;10.098;2022-10-16T21:04:20;4.13;;;1.30;;
48215;SDS011;34005;48.844;10.098;2022-10-16T21:06:47;1.95;;;1.17;;
48215;SDS011;34005;48.844;10.098;2022-10-16T21:09:15;2.78;;;1.48;;
48215;SDS011;34005;48.844;10.098;2022-10-16T21:11:42;2.30;;;1.10;;
48215;SDS011;34005;48.844;10.098;2022-10-16T21:14:11;1.77;;;1.20;;
48215;SDS011;34005;48.844;10.098;2022-10-16T21:16:39;2.45;;;1.10;;
48215;SDS011;34005;48.844;10.098;2022-10-16T21:19:07;4.57;;;1.30;;
48215;SDS011;34005;48.844;10.098;2022-10-16T21:21:35;3.17;;;1.20;;
48215;SDS011;34005;48.844;10.098;2022-10-16T21:24:04;4.53;;;1.35;;
48215;SDS011;34005;48.844;10.098;2022-10-16T21:26:38;1.48;;;1.25;;
48215;SDS011;34005;48.844;10.098;2022-10-16T21:29:06;2.10;;;1.00;;
48215;SDS011;34005;48.844;10.098;2022-10-16T21:31:35;2.08;;;1.10;;
48215;SDS011;34005;48.844;10.098;2022-10-16T21:34:02;2.25;;;1.13;;
48215;SDS011;34005;48.844;10.098;2022-10-16T21:36:31;1.52;;;0.98;;
48215;SDS011;34005;48.844;10.098;2022-10-16T21:39:00;1.48;;;0.80;;
48215;SDS011;34005;48.844;10.098;2022-10-16T21:41:28;1.02;;;1.00;;
48215;SDS011;34005;48.844;10.098;2022-10-16T21:43:56;5.03;;;1.20;;
48215;SDS011;34005;48.844;10.098;2022-10-16T21:46:25;1.48;;;1.05;;
48215;SDS011;34005;48.844;10.098;2022-10-16T21:48:56;3.05;;;1.30;;
48215;SDS011;34005;48.844;10.098;2022-10-16T21:51:25;3.55;;;1.38;;
48215;SDS011;34005;48.844;10.098;2022-10-16T21:53:54;4.15;;;1.48;;
48215;SDS011;34005;48.844;10.098;2022-10-16T21:56:21;3.42;;;1.42;;
48215;SDS011;34005;48.844;10.098;2022-10-16T21:58:49;3.72;;;0.98;;
48215;SDS011;34005;48.844;10.098;2022-10-16T22:01:18;2.60;;;1.33;;
48215;SDS011;34005;48.844;10.098;2022-10-16T22:03:46;2.25;;;1.13;;
48215;SDS011;34005;48.844;10.098;2022-10-16T22:06:16;4.13;;;1.90;;
48215;SDS011;34005;48.844;10.098;2022-10-16T22:08:52;1.42;;;1.20;;
48215;SDS011;34005;48.844;10.098;2022-10-16T22:11:22;2.53;;;0.95;;
48215;SDS011;34005;48.844;10.098;2022-10-16T22:13:51;2.33;;;1.38;;
48215;SDS011;34005;48.844;10.098;2022-10-16T22:16:22;1.40;;;1.20;;
48215;SDS011;34005;48.844;10.098;2022-10-16T22:18:52;6.18;;;1.15;;
48215;SDS011;34005;48.844;10.098;2022-10-16T22:21:22;4.65;;;1.30;;
48215;SDS011;34005;48.844;10.098;2022-10-16T22:23:50;3.50;;;1.10;;
48215;SDS011;34005;48.844;10.098;2022-10-16T22:26:17;7.97;;;1.08;;
48215;SDS011;34005;48.844;10.098;2022-10-16T22:28:46;3.90;;;1.38;;
48215;SDS011;34005;48.844;10.098;2022-10-16T22:31:14;2.40;;;1.17;;
48215;SDS011;34005;48.844;10.098;2022-10-16T22:33:42;2.20;;;1.15;;
48215;SDS011;34005;48.844;10.098;2022-10-16T22:36:11;4.10;;;1.50;;
48215;SDS011;34005;48.844;10.098;2022-10-16T22:38:41;8.63;;;1.38;;
48215;SDS011;34005;48.844;10.098;2022-10-16T22:41:10;1.48;;;1.00;;
48215;SDS011;34005;48.844;10.098;2022-10-16T22:43:39;1.33;;;0.82;;
48215;SDS011;34005;48.844;10.098;2022-10-16T22:46:09;4.40;;;1.23;;
48215;SDS011;34005;48.844;10.098;2022-10-16T22:48:38;4.28;;;1.13;;
48215;SDS011;34005;48.844;10.098;2022-10-16T22:51:06;1.48;;;1.05;;
48215;SDS011;34005;48.844;10.098;2022-10-16T22:53:43;2.75;;;1.25;;
48215;SDS011;34005;48.844;10.098;2022-10-16T22:56:12;8.00;;;1.42;;
48215;SDS011;34005;48.844;10.098;2022-10-16T22:58:40;5.05;;;1.63;;
48215;SDS011;34005;48.844;10.098;2022-10-16T23:01:09;5.30;;;1.17;;
48215;SDS011;34005;48.844;10.098;2022-10-16T23:03:38;5.93;;;1.30;;
48215;SDS011;34005;48.844;10.098;2022-10-16T23:06:05;1.67;;;1.25;;
48215;SDS011;34005;48.844;10.098;2022-10-16T23:08:33;1.88;;;1.20;;
48215;SDS011;34005;48.844;10.098;2022-10-16T23:11:05;1.67;;;1.27;;
48215;SDS011;34005;48.844;10.098;2022-10-16T23:16:03;3.22;;;1.42;;
48215;SDS011;34005;48.844;10.098;2022-10-16T23:18:31;1.73;;;1.20;;
48215;SDS011;34005;48.844;10.098;2022-10-16T23:21:03;3.15;;;1.00;;
48215;SDS011;34005;48.844;10.098;2022-10-16T23:23:32;5.53;;;2.03;;
48215;SDS011;34005;48.844;10.098;2022-10-16T23:26:00;2.25;;;1.05;;
48215;SDS011;34005;48.844;10.098;2022-10-16T23:28:29;4.80;;;1.00;;
48215;SDS011;34005;48.844;10.098;2022-10-16T23:30:58;3.08;;;1.40;;
48215;SDS011;34005;48.844;10.098;2022-10-16T23:33:25;1.85;;;1.13;;
48215;SDS011;34005;48.844;10.098;2022-10-16T23:35:53;2.33;;;1.42;;
48215;SDS011;34005;48.844;10.098;2022-10-16T23:38:20;3.85;;;1.25;;
48215;SDS011;34005;48.844;10.098;2022-10-16T23:40:48;1.52;;;1.00;;
48215;SDS011;34005;48.844;10.098;2022-10-16T23:43:15;3.30;;;1.08;;
48215;SDS011;34005;48.844;10.098;2022-10-16T23:45:44;4.07;;;1.17;;
48215;SDS011;34005;48.844;10.098;2022-10-16T23:48:12;1.55;;;1.20;;
48215;SDS011;34005;48.844;10.098;2022-10-16T23:50:39;1.38;;;1.23;;
48215;SDS011;34005;48.844;10.098;2022-10-16T23:53:07;7.55;;;1.20;;
48215;SDS011;34005;48.844;10.098;2022-10-16T23:55:35;1.23;;;1.13;;
48215;SDS011;34005;48.844;10.098;2022-10-16T23:58:03;1.98;;;1.20;;
